Oak Lodge, Oregon
Current Conditions -  °F | °C
As of 4:53 PM on Wednesday 26 Nov 2014 (Local Time) from KPDX Reporting Station
Overcast Overcast  
Wind Chill: 57°   Ceiling: 16000
Heat Index: 57°   Visibility: 10mi
Dew Point: 52°   Wind: 8mph
Humidity: 83%   Direction: 100°E
Pressure: 30.04"   Gusts: NA
Location:  45.4079°N, 122.613°W
Report Text: KPDX 270053Z 10007KT 10SM FEW060 BKN160 OVC220 14/11 A3004 RMK AO2 SLP172 T01390111
Loading
Personal Weather Stations






























Interactive Weather Map New forecast layout! Learn more

10-Day Weather Forecast

Advertisements
Track Severe Weather on mobile